createdAt,value
2022-09-06T00:00:13.859Z,20.50
2022-09-06T00:02:40.574Z,20.50
2022-09-06T00:05:07.406Z,20.50
2022-09-06T00:07:34.104Z,20.50
2022-09-06T00:10:01.458Z,20.50
2022-09-06T00:12:28.105Z,20.50
2022-09-06T00:14:54.679Z,20.40
2022-09-06T00:17:21.260Z,20.40
2022-09-06T00:19:48.079Z,20.30
2022-09-06T00:22:14.664Z,20.30
2022-09-06T00:24:41.235Z,20.20
2022-09-06T00:27:08.228Z,20.20
2022-09-06T00:29:34.903Z,20.20
2022-09-06T00:32:01.577Z,20.10
2022-09-06T00:34:28.153Z,20.00
2022-09-06T00:36:54.786Z,20.00
2022-09-06T00:39:21.377Z,19.90
2022-09-06T00:41:47.968Z,19.90
2022-09-06T00:44:15.047Z,19.90
2022-09-06T00:46:42.129Z,19.90
2022-09-06T00:49:09.692Z,20.00
2022-09-06T00:51:36.280Z,20.00
2022-09-06T00:54:06.751Z,20.00
2022-09-06T00:56:34.109Z,19.90
2022-09-06T00:59:00.758Z,19.90
2022-09-06T01:01:27.886Z,19.90
2022-09-06T01:03:54.557Z,19.80
2022-09-06T01:06:24.578Z,19.70
2022-09-06T01:08:58.524Z,19.60
2022-09-06T01:11:29.112Z,19.50
2022-09-06T01:13:55.624Z,19.50
2022-09-06T01:16:22.167Z,19.40
2022-09-06T01:18:57.829Z,19.40
2022-09-06T01:21:24.352Z,19.30
2022-09-06T01:24:09.757Z,19.20
2022-09-06T01:26:36.288Z,19.20
2022-09-06T01:29:02.882Z,19.20
2022-09-06T01:31:35.373Z,19.20
2022-09-06T01:34:08.020Z,19.10
2022-09-06T01:36:45.771Z,19.10
2022-09-06T01:39:25.312Z,19.10
2022-09-06T01:41:52.092Z,19.10
2022-09-06T01:44:18.669Z,19.10
2022-09-06T01:46:52.484Z,19.10
2022-09-06T01:49:22.280Z,19.10
2022-09-06T01:51:51.870Z,19.10
2022-09-06T01:54:26.375Z,19.00
2022-09-06T01:57:19.328Z,19.00
2022-09-06T01:59:55.933Z,19.00
2022-09-06T02:02:42.815Z,18.90
2022-09-06T02:05:12.172Z,18.90
2022-09-06T02:07:38.756Z,18.80
2022-09-06T02:10:09.344Z,18.80
2022-09-06T02:12:36.754Z,18.70
2022-09-06T02:15:05.527Z,18.70
2022-09-06T02:17:35.656Z,18.70
2022-09-06T02:20:03.194Z,18.70
2022-09-06T02:22:30.272Z,18.80
2022-09-06T02:24:56.851Z,18.80
2022-09-06T02:27:23.491Z,18.80
2022-09-06T02:29:50.101Z,18.80
2022-09-06T02:32:18.160Z,18.80
2022-09-06T02:34:46.168Z,18.80
2022-09-06T02:37:12.909Z,18.70
2022-09-06T02:39:39.732Z,18.70
2022-09-06T02:42:06.870Z,18.60
2022-09-06T02:44:33.486Z,18.60
2022-09-06T02:47:01.457Z,18.60
2022-09-06T02:49:28.038Z,18.50
2022-09-06T02:51:54.824Z,18.50
2022-09-06T02:54:21.441Z,18.50
2022-09-06T02:56:52.005Z,18.50
2022-09-06T02:59:18.918Z,18.50
2022-09-06T03:01:45.564Z,18.50
2022-09-06T03:04:12.260Z,18.50
2022-09-06T03:06:38.851Z,18.50
2022-09-06T03:09:05.547Z,18.40
2022-09-06T03:11:32.145Z,18.40
2022-09-06T03:13:58.719Z,18.40
2022-09-06T03:16:25.409Z,18.40
2022-09-06T03:18:52.011Z,18.30
2022-09-06T03:21:18.594Z,18.30
2022-09-06T03:23:45.881Z,18.20
2022-09-06T03:26:12.509Z,18.20
2022-09-06T03:28:39.515Z,18.10
2022-09-06T03:31:06.273Z,18.10
2022-09-06T03:33:32.997Z,18.10
2022-09-06T03:35:59.970Z,18.10
2022-09-06T03:38:27.243Z,18.00
2022-09-06T03:40:54.126Z,18.00
2022-09-06T03:43:20.952Z,17.90
2022-09-06T03:45:48.066Z,17.80
2022-09-06T03:48:14.892Z,17.80
2022-09-06T03:50:45.326Z,17.80
2022-09-06T03:53:11.981Z,17.80
2022-09-06T03:55:38.582Z,17.80
2022-09-06T03:58:05.177Z,17.80
2022-09-06T04:00:33.557Z,17.80
2022-09-06T04:03:01.821Z,17.80
2022-09-06T04:05:28.848Z,17.80
2022-09-06T04:07:55.455Z,17.80
2022-09-06T04:10:22.027Z,17.70
2022-09-06T04:12:48.615Z,17.70
2022-09-06T04:15:15.187Z,17.70
2022-09-06T04:17:47.863Z,17.80
2022-09-06T04:20:14.620Z,17.80
2022-09-06T04:22:41.201Z,17.90
2022-09-06T04:25:08.148Z,17.90
2022-09-06T04:27:34.740Z,17.90
2022-09-06T04:30:01.476Z,17.90
2022-09-06T04:32:28.159Z,17.90
2022-09-06T04:34:54.733Z,17.90
2022-09-06T04:37:21.322Z,17.90
2022-09-06T04:39:48.178Z,17.90
2022-09-06T04:42:14.879Z,18.00
2022-09-06T04:44:41.510Z,18.00
2022-09-06T04:47:12.621Z,18.10
2022-09-06T04:49:39.201Z,18.10
2022-09-06T04:52:05.791Z,18.10
2022-09-06T04:54:33.068Z,18.10
2022-09-06T04:56:59.655Z,18.10
2022-09-06T04:59:26.233Z,18.20
2022-09-06T05:01:52.884Z,18.20
2022-09-06T05:04:19.500Z,18.20
2022-09-06T05:06:46.142Z,18.20
2022-09-06T05:09:12.750Z,18.20
2022-09-06T05:11:39.333Z,18.10
2022-09-06T05:14:05.924Z,18.10
2022-09-06T05:16:32.545Z,18.00
2022-09-06T05:18:59.179Z,18.00
2022-09-06T05:21:25.763Z,18.00
2022-09-06T05:23:55.480Z,18.00
2022-09-06T05:26:25.022Z,18.00
2022-09-06T05:28:51.638Z,18.00
2022-09-06T05:31:28.344Z,18.10
2022-09-06T05:33:55.075Z,18.10
2022-09-06T05:36:23.414Z,18.20
2022-09-06T05:38:50.634Z,18.30
2022-09-06T05:41:17.345Z,18.30
2022-09-06T05:43:44.007Z,18.40
2022-09-06T05:46:10.610Z,18.40
2022-09-06T05:48:37.509Z,18.40
2022-09-06T05:51:05.411Z,18.50
2022-09-06T05:53:39.495Z,18.60
2022-09-06T05:56:06.111Z,18.70
2022-09-06T05:58:32.740Z,18.80
2022-09-06T06:01:16.148Z,18.90
2022-09-06T06:03:43.321Z,19.10
2022-09-06T06:06:09.897Z,19.40
2022-09-06T06:08:36.493Z,19.60
2022-09-06T06:11:03.107Z,19.80
2022-09-06T06:13:29.944Z,19.80
2022-09-06T06:15:56.671Z,19.70
2022-09-06T06:18:23.406Z,19.70
2022-09-06T06:20:50.557Z,19.70
2022-09-06T06:23:17.177Z,19.90
2022-09-06T06:25:43.768Z,20.10
2022-09-06T06:28:10.352Z,20.10
2022-09-06T06:30:36.925Z,20.40
2022-09-06T06:33:03.516Z,20.50
2022-09-06T06:35:30.097Z,21.00
2022-09-06T06:37:57.030Z,21.60
2022-09-06T06:40:23.616Z,22.20
2022-09-06T06:42:50.289Z,22.60
2022-09-06T06:45:17.121Z,22.70
2022-09-06T06:47:43.719Z,22.40
2022-09-06T06:50:10.381Z,21.90
2022-09-06T06:52:36.963Z,21.60
2022-09-06T06:55:03.614Z,21.30
2022-09-06T06:57:30.200Z,21.00
2022-09-06T06:59:56.778Z,20.90
2022-09-06T07:02:23.432Z,20.90
2022-09-06T07:04:50.078Z,20.80
2022-09-06T07:07:33.491Z,20.80
2022-09-06T07:12:48.672Z,21.00
2022-09-06T07:15:15.273Z,21.30
2022-09-06T07:17:41.913Z,21.50
2022-09-06T07:22:38.913Z,22.00
2022-09-06T07:25:05.759Z,22.20
2022-09-06T07:27:48.760Z,22.40
2022-09-06T07:30:16.170Z,22.60
2022-09-06T07:32:42.757Z,22.90
2022-09-06T07:35:09.430Z,23.00
2022-09-06T07:37:36.031Z,23.00
2022-09-06T07:40:03.243Z,22.90
2022-09-06T07:42:35.629Z,22.90
2022-09-06T07:45:03.796Z,22.90
2022-09-06T07:55:38.546Z,23.20
2022-09-06T07:58:05.134Z,23.40
2022-09-06T08:00:31.972Z,23.60
2022-09-06T08:02:58.690Z,23.60
2022-09-06T08:10:58.450Z,24.70
2022-09-06T08:13:25.040Z,24.70
2022-09-06T08:15:58.102Z,24.40
2022-09-06T08:18:24.742Z,24.40
2022-09-06T08:20:51.310Z,24.40
2022-09-06T08:23:17.900Z,24.30
2022-09-06T08:25:44.476Z,24.40
2022-09-06T08:28:11.062Z,24.60
2022-09-06T08:30:37.679Z,24.80
2022-09-06T08:33:04.306Z,24.90
2022-09-06T08:35:30.898Z,24.90
2022-09-06T08:37:57.701Z,25.10
2022-09-06T08:40:25.377Z,25.20
2022-09-06T08:42:51.982Z,25.30
2022-09-06T08:45:23.231Z,25.40
2022-09-06T08:47:52.292Z,25.40
2022-09-06T08:50:18.868Z,25.50
2022-09-06T08:53:18.321Z,25.70
2022-09-06T08:56:04.836Z,25.90
2022-09-06T08:58:40.186Z,26.00
2022-09-06T09:01:07.582Z,26.10
2022-09-06T09:03:38.096Z,26.00
2022-09-06T09:06:09.211Z,25.80
2022-09-06T09:08:56.093Z,25.90
2022-09-06T09:11:23.150Z,26.00
2022-09-06T09:13:56.852Z,25.50
2022-09-06T09:16:23.546Z,25.40
2022-09-06T09:18:51.848Z,25.40
2022-09-06T09:21:20.296Z,25.70
2022-09-06T09:23:48.831Z,25.70
2022-09-06T09:26:15.429Z,25.60
2022-09-06T09:29:01.601Z,25.50
2022-09-06T09:31:38.790Z,25.60
2022-09-06T09:34:05.656Z,25.70
2022-09-06T09:36:32.731Z,25.70
2022-09-06T09:38:59.780Z,25.90
2022-09-06T09:41:30.307Z,26.00
2022-09-06T09:44:05.170Z,26.00
2022-09-06T09:46:33.155Z,26.00
2022-09-06T09:49:00.930Z,26.20
2022-09-06T09:51:27.925Z,26.60
2022-09-06T09:54:01.340Z,26.80
2022-09-06T09:56:39.881Z,27.40
2022-09-06T09:59:08.365Z,27.80
2022-09-06T10:01:34.955Z,28.30
2022-09-06T10:09:34.957Z,29.00
2022-09-06T10:12:01.657Z,29.00
2022-09-06T10:14:32.244Z,28.70
2022-09-06T10:16:59.129Z,28.60
2022-09-06T10:19:42.045Z,28.40
2022-09-06T10:22:11.885Z,28.40
2022-09-06T10:24:44.600Z,28.50
2022-09-06T10:27:11.190Z,28.60
2022-09-06T10:29:42.661Z,28.60
2022-09-06T10:32:09.228Z,28.30
2022-09-06T10:34:41.620Z,28.20
2022-09-06T10:37:08.151Z,28.20
2022-09-06T10:39:53.529Z,28.10
2022-09-06T10:42:20.684Z,27.90
2022-09-06T10:44:53.038Z,27.70
2022-09-06T10:47:19.632Z,27.60
2022-09-06T10:49:48.060Z,27.70
2022-09-06T10:52:15.605Z,27.70
2022-09-06T10:54:42.232Z,27.70
2022-09-06T10:59:59.268Z,27.90
2022-09-06T11:02:45.035Z,28.10
2022-09-06T11:10:56.273Z,28.60
2022-09-06T11:13:23.812Z,28.40
2022-09-06T11:16:04.663Z,28.60
2022-09-06T11:18:39.239Z,28.40
2022-09-06T11:21:08.513Z,28.60
2022-09-06T11:23:40.730Z,29.00
2022-09-06T11:26:26.679Z,29.30
2022-09-06T11:29:13.554Z,29.20
2022-09-06T11:34:45.685Z,29.30
2022-09-06T11:37:23.476Z,29.50
2022-09-06T11:42:50.672Z,29.80
2022-09-06T11:45:21.376Z,29.80
2022-09-06T11:47:48.597Z,29.70
2022-09-06T11:50:21.365Z,29.50
2022-09-06T11:53:06.276Z,29.40
2022-09-06T11:55:36.873Z,29.30
2022-09-06T11:58:04.847Z,29.50
2022-09-06T12:00:32.572Z,29.40
2022-09-06T12:06:04.554Z,29.50
2022-09-06T12:08:32.295Z,29.60
2022-09-06T12:11:00.541Z,29.90
2022-09-06T12:13:45.659Z,30.40
2022-09-06T12:16:12.519Z,30.60
2022-09-06T12:18:48.545Z,30.80
2022-09-06T12:21:33.948Z,30.80
2022-09-06T12:24:00.637Z,30.70
2022-09-06T12:26:50.803Z,30.80
2022-09-06T12:29:27.202Z,30.60
2022-09-06T12:31:54.581Z,30.70
2022-09-06T12:34:22.125Z,30.70
2022-09-06T12:36:49.853Z,30.90
2022-09-06T12:39:17.588Z,31.00
2022-09-06T12:41:45.097Z,30.30
2022-09-06T12:44:11.737Z,30.20
2022-09-06T12:46:39.971Z,30.20
2022-09-06T12:49:10.517Z,30.00
2022-09-06T12:51:37.728Z,30.10
2022-09-06T12:54:20.989Z,30.10
2022-09-06T12:56:47.586Z,30.20
2022-09-06T12:59:21.120Z,30.20
2022-09-06T13:01:52.825Z,30.10
2022-09-06T13:04:26.972Z,29.80
2022-09-06T13:06:53.844Z,29.80
2022-09-06T13:09:20.544Z,29.80
2022-09-06T13:11:48.246Z,29.80
2022-09-06T13:14:19.497Z,30.00
2022-09-06T13:16:46.697Z,30.40
2022-09-06T13:19:14.148Z,30.50
2022-09-06T13:21:41.423Z,30.60
2022-09-06T13:24:20.193Z,30.40
2022-09-06T13:26:46.862Z,30.10
2022-09-06T13:29:16.459Z,30.10
2022-09-06T13:31:46.455Z,30.20
2022-09-06T13:34:20.768Z,30.40
2022-09-06T13:36:50.934Z,30.50
2022-09-06T13:39:53.185Z,30.70
2022-09-06T13:42:27.438Z,30.50
2022-09-06T13:44:55.306Z,30.60
2022-09-06T13:47:28.523Z,30.70
2022-09-06T13:49:55.196Z,30.80
2022-09-06T13:52:22.344Z,31.00
2022-09-06T13:54:48.970Z,31.00
2022-09-06T13:57:15.563Z,30.70
2022-09-06T13:59:43.112Z,30.50
2022-09-06T14:02:12.050Z,30.30
2022-09-06T14:04:38.772Z,30.20
2022-09-06T14:07:05.425Z,30.30
2022-09-06T14:09:32.619Z,30.20
2022-09-06T14:11:59.358Z,30.30
2022-09-06T14:14:25.960Z,30.30
2022-09-06T14:16:53.981Z,30.30
2022-09-06T14:19:20.591Z,30.20
2022-09-06T14:21:47.220Z,30.10
2022-09-06T14:24:13.807Z,29.80
2022-09-06T14:26:40.431Z,29.30
2022-09-06T14:29:08.136Z,29.20
2022-09-06T14:31:34.907Z,29.10
2022-09-06T14:34:01.624Z,29.20
2022-09-06T14:36:29.473Z,29.20
2022-09-06T14:38:56.806Z,29.30
2022-09-06T14:41:23.385Z,29.20
2022-09-06T14:43:51.134Z,29.40
2022-09-06T14:46:18.252Z,29.50
2022-09-06T14:48:45.194Z,29.20
2022-09-06T14:51:12.597Z,29.30
2022-09-06T14:53:42.912Z,29.50
2022-09-06T14:56:10.286Z,29.60
2022-09-06T14:58:37.430Z,29.50
2022-09-06T15:01:08.201Z,29.60
2022-09-06T15:03:35.650Z,29.50
2022-09-06T15:06:02.850Z,29.20
2022-09-06T15:08:29.441Z,28.80
2022-09-06T15:10:56.034Z,28.60
2022-09-06T15:13:22.712Z,28.40
2022-09-06T15:15:49.684Z,28.20
2022-09-06T15:18:16.658Z,28.10
2022-09-06T15:20:44.758Z,28.20
2022-09-06T15:23:26.824Z,28.20
2022-09-06T15:25:54.075Z,28.30
2022-09-06T15:28:20.774Z,28.40
2022-09-06T15:30:47.646Z,28.50
2022-09-06T15:33:15.097Z,28.60
2022-09-06T15:35:42.608Z,28.70
2022-09-06T15:38:09.702Z,28.80
2022-09-06T15:40:36.387Z,28.90
2022-09-06T15:43:03.261Z,28.90
2022-09-06T15:45:29.849Z,29.00
2022-09-06T15:47:56.725Z,29.10
2022-09-06T15:50:47.654Z,29.10
2022-09-06T15:53:10.154Z,29.10
2022-09-06T15:55:55.672Z,29.00
2022-09-06T15:58:22.783Z,28.90
2022-09-06T16:01:01.684Z,28.80
2022-09-06T16:03:28.481Z,28.70
2022-09-06T16:08:47.614Z,28.60
2022-09-06T16:11:14.808Z,28.70
2022-09-06T16:13:41.478Z,28.80
2022-09-06T16:16:08.715Z,28.90
2022-09-06T16:18:35.724Z,28.90
2022-09-06T16:21:07.137Z,29.00
2022-09-06T16:23:34.244Z,28.90
2022-09-06T16:26:00.853Z,28.90
2022-09-06T16:28:28.253Z,28.90
2022-09-06T16:30:55.976Z,28.90
2022-09-06T16:33:22.626Z,28.80
2022-09-06T16:35:49.222Z,28.70
2022-09-06T16:38:15.821Z,28.60
2022-09-06T16:40:45.638Z,28.50
2022-09-06T16:43:12.544Z,28.30
2022-09-06T16:45:39.679Z,28.20
2022-09-06T16:48:07.041Z,28.10
2022-09-06T16:50:33.769Z,27.90
2022-09-06T16:53:00.744Z,27.90
2022-09-06T16:55:27.638Z,27.70
2022-09-06T16:57:54.263Z,27.70
2022-09-06T17:00:20.832Z,27.50
2022-09-06T17:02:47.734Z,27.50
2022-09-06T17:05:14.490Z,27.40
2022-09-06T17:07:41.767Z,27.30
2022-09-06T17:10:08.563Z,27.20
2022-09-06T17:12:35.194Z,27.10
2022-09-06T17:15:01.873Z,27.10
2022-09-06T17:17:28.482Z,26.90
2022-09-06T17:19:55.121Z,26.80
2022-09-06T17:22:21.769Z,26.80
2022-09-06T17:24:48.403Z,26.60
2022-09-06T17:27:15.050Z,26.60
2022-09-06T17:29:41.864Z,26.50
2022-09-06T17:32:11.451Z,26.50
2022-09-06T17:34:38.716Z,26.40
2022-09-06T17:37:05.453Z,26.30
2022-09-06T17:39:32.132Z,26.30
2022-09-06T17:41:58.843Z,26.20
2022-09-06T17:44:25.753Z,26.10
2022-09-06T17:47:11.529Z,26.00
2022-09-06T17:49:39.259Z,25.90
2022-09-06T17:52:05.850Z,25.80
2022-09-06T17:54:32.464Z,25.80
2022-09-06T17:56:59.044Z,25.70
2022-09-06T17:59:25.629Z,25.60
2022-09-06T18:01:52.466Z,25.50
2022-09-06T18:04:19.445Z,25.40
2022-09-06T18:06:47.450Z,25.30
2022-09-06T18:09:15.424Z,25.30
2022-09-06T18:11:42.364Z,25.30
2022-09-06T18:14:09.883Z,25.20
2022-09-06T18:16:36.848Z,25.10
2022-09-06T18:19:04.604Z,25.10
2022-09-06T18:21:31.735Z,25.00
2022-09-06T18:23:58.413Z,24.80
2022-09-06T18:26:25.073Z,24.70
2022-09-06T18:28:53.091Z,24.60
2022-09-06T18:31:20.049Z,24.50
2022-09-06T18:33:46.714Z,24.50
2022-09-06T18:36:13.421Z,24.30
2022-09-06T18:38:40.151Z,24.20
2022-09-06T18:41:07.584Z,24.10
2022-09-06T18:43:39.889Z,24.00
2022-09-06T18:46:08.166Z,23.80
2022-09-06T18:48:36.455Z,23.80
2022-09-06T18:51:03.837Z,23.70
2022-09-06T18:53:30.554Z,23.70
2022-09-06T18:55:57.310Z,23.60
2022-09-06T18:58:24.059Z,23.50
2022-09-06T19:00:51.542Z,23.50
2022-09-06T19:03:18.256Z,23.40
2022-09-06T19:05:45.237Z,23.30
2022-09-06T19:08:11.815Z,23.20
2022-09-06T19:10:38.441Z,23.10
2022-09-06T19:13:05.107Z,23.10
2022-09-06T19:15:31.967Z,23.00
2022-09-06T19:17:58.612Z,22.90
2022-09-06T19:20:25.219Z,22.90
2022-09-06T19:22:51.790Z,22.80
2022-09-06T19:25:19.105Z,22.70
2022-09-06T19:27:48.820Z,22.60
2022-09-06T19:30:15.625Z,22.60
2022-09-06T19:32:42.622Z,22.60
2022-09-06T19:35:09.343Z,22.60
2022-09-06T19:37:35.927Z,22.60
2022-09-06T19:40:02.683Z,22.60
2022-09-06T19:42:29.302Z,22.50
2022-09-06T19:44:55.896Z,22.40
2022-09-06T19:47:22.469Z,22.40
2022-09-06T19:49:49.057Z,22.30
2022-09-06T19:52:15.641Z,22.30
2022-09-06T19:54:43.241Z,22.20
2022-09-06T19:57:10.120Z,22.10
2022-09-06T19:59:36.900Z,22.00
2022-09-06T20:02:03.667Z,22.00
2022-09-06T20:04:30.354Z,21.90
2022-09-06T20:06:57.569Z,21.80
2022-09-06T20:09:24.385Z,21.80
2022-09-06T20:11:51.313Z,21.80
2022-09-06T20:14:17.924Z,21.70
2022-09-06T20:16:44.735Z,21.70
2022-09-06T20:19:12.204Z,21.70
2022-09-06T20:21:38.898Z,21.60
2022-09-06T20:24:05.621Z,21.60
2022-09-06T20:26:32.218Z,21.60
2022-09-06T20:28:59.664Z,21.60
2022-09-06T20:31:26.355Z,21.60
2022-09-06T20:33:52.995Z,21.60
2022-09-06T20:36:19.771Z,21.60
2022-09-06T20:38:46.550Z,21.50
2022-09-06T20:41:14.016Z,21.50
2022-09-06T20:43:40.783Z,21.40
2022-09-06T20:46:10.413Z,21.50
2022-09-06T20:48:44.415Z,21.50
2022-09-06T20:51:15.452Z,21.50
2022-09-06T20:53:42.088Z,21.40
2022-09-06T20:56:15.544Z,21.40
2022-09-06T20:58:42.133Z,21.30
2022-09-06T21:01:09.460Z,21.30
2022-09-06T21:03:36.917Z,21.20
2022-09-06T21:06:03.805Z,21.10
2022-09-06T21:08:34.455Z,21.10
2022-09-06T21:11:01.680Z,21.00
2022-09-06T21:13:28.493Z,21.00
2022-09-06T21:15:55.739Z,21.00
2022-09-06T21:18:26.258Z,21.00
2022-09-06T21:20:56.445Z,20.90
2022-09-06T21:23:23.112Z,20.80
2022-09-06T21:25:56.373Z,20.80
2022-09-06T21:28:23.251Z,20.80
2022-09-06T21:30:59.835Z,20.70
2022-09-06T21:33:30.152Z,20.70
2022-09-06T21:36:12.918Z,20.60
2022-09-06T21:38:40.503Z,20.60
2022-09-06T21:41:07.087Z,20.60
2022-09-06T21:43:33.667Z,20.60
2022-09-06T21:46:03.924Z,20.50
2022-09-06T21:48:30.572Z,20.50
2022-09-06T21:50:57.387Z,20.50
2022-09-06T21:53:26.018Z,20.50
2022-09-06T21:55:52.615Z,20.50
2022-09-06T21:58:19.722Z,20.50
2022-09-06T22:00:51.750Z,20.50
2022-09-06T22:03:18.380Z,20.40
2022-09-06T22:05:45.997Z,20.40
2022-09-06T22:08:12.666Z,20.40
2022-09-06T22:10:39.348Z,20.30
2022-09-06T22:13:05.924Z,20.30
2022-09-06T22:15:32.511Z,20.30
2022-09-06T22:17:59.190Z,20.30
2022-09-06T22:20:25.776Z,20.30
2022-09-06T22:22:52.357Z,20.30
2022-09-06T22:25:18.949Z,20.30
2022-09-06T22:27:45.905Z,20.20
2022-09-06T22:30:12.581Z,20.20
2022-09-06T22:32:39.162Z,20.10
2022-09-06T22:35:06.272Z,20.10
2022-09-06T22:37:33.763Z,20.10
2022-09-06T22:40:00.717Z,20.10
2022-09-06T22:42:27.388Z,20.10
2022-09-06T22:44:54.598Z,20.10
2022-09-06T22:47:21.335Z,20.10
2022-09-06T22:49:47.920Z,20.10
2022-09-06T22:52:14.495Z,20.10
2022-09-06T22:54:41.085Z,20.00
2022-09-06T22:57:07.661Z,19.90
2022-09-06T22:59:37.286Z,19.80
2022-09-06T23:02:04.110Z,19.60
2022-09-06T23:04:31.984Z,19.50
2022-09-06T23:06:59.548Z,19.40
2022-09-06T23:09:26.189Z,19.30
2022-09-06T23:11:52.783Z,19.20
2022-09-06T23:14:19.422Z,19.10
2022-09-06T23:16:45.997Z,19.00
2022-09-06T23:19:12.584Z,19.00
2022-09-06T23:21:39.176Z,19.00
2022-09-06T23:24:05.766Z,19.00
2022-09-06T23:26:32.383Z,19.00
2022-09-06T23:28:59.027Z,19.00
2022-09-06T23:31:26.201Z,19.00
2022-09-06T23:33:53.235Z,19.00
2022-09-06T23:36:19.828Z,19.00
2022-09-06T23:38:46.476Z,18.90
2022-09-06T23:41:13.423Z,18.90
2022-09-06T23:43:40.790Z,18.80
2022-09-06T23:46:07.504Z,18.80
2022-09-06T23:48:34.194Z,18.80
2022-09-06T23:51:00.787Z,18.80
2022-09-06T23:53:27.348Z,18.80
2022-09-06T23:55:53.959Z,18.80
2022-09-06T23:58:20.520Z,18.80
